sensor_id;sensor_type;location;lat;lon;timestamp;temperature;humidity
39983;DHT22;25670;44.782;10.356;2022-11-15T00:00:52;7.40;99.90
39983;DHT22;25670;44.782;10.356;2022-11-15T00:06:22;7.40;99.90
39983;DHT22;25670;44.782;10.356;2022-11-15T00:11:52;7.80;99.90
39983;DHT22;25670;44.782;10.356;2022-11-15T00:20:07;8.10;99.90
39983;DHT22;25670;44.782;10.356;2022-11-15T00:22:52;7.40;99.90
39983;DHT22;25670;44.782;10.356;2022-11-15T00:31:09;7.30;99.90
39983;DHT22;25670;44.782;10.356;2022-11-15T00:36:40;7.40;99.90
39983;DHT22;25670;44.782;10.356;2022-11-15T00:42:10;7.40;99.90
39983;DHT22;25670;44.782;10.356;2022-11-15T00:50:24;7.30;99.90
39983;DHT22;25670;44.782;10.356;2022-11-15T00:53:09;7.20;99.90
39983;DHT22;25670;44.782;10.356;2022-11-15T00:55:54;7.20;99.90
39983;DHT22;25670;44.782;10.356;2022-11-15T01:06:53;7.10;99.90
39983;DHT22;25670;44.782;10.356;2022-11-15T01:09:38;7.10;99.90
39983;DHT22;25670;44.782;10.356;2022-11-15T01:17:52;6.80;99.90
39983;DHT22;25670;44.782;10.356;2022-11-15T01:20:41;6.90;99.90
39983;DHT22;25670;44.782;10.356;2022-11-15T01:26:14;7.10;99.90
39983;DHT22;25670;44.782;10.356;2022-11-15T01:37:14;7.10;99.90
39983;DHT22;25670;44.782;10.356;2022-11-15T01:39:58;7.10;99.90
39983;DHT22;25670;44.782;10.356;2022-11-15T01:42:42;7.10;99.90
39983;DHT22;25670;44.782;10.356;2022-11-15T01:48:12;7.20;99.90
39983;DHT22;25670;44.782;10.356;2022-11-15T01:50:58;7.10;99.90
39983;DHT22;25670;44.782;10.356;2022-11-15T01:53:46;7.60;99.90
39983;DHT22;25670;44.782;10.356;2022-11-15T01:56:36;7.10;99.90
39983;DHT22;25670;44.782;10.356;2022-11-15T01:59:22;7.30;99.90
39983;DHT22;25670;44.782;10.356;2022-11-15T02:07:37;7.20;99.90
39983;DHT22;25670;44.782;10.356;2022-11-15T02:10:23;7.20;99.90
39983;DHT22;25670;44.782;10.356;2022-11-15T02:13:08;7.20;99.90
39983;DHT22;25670;44.782;10.356;2022-11-15T02:21:49;6.90;99.90
39983;DHT22;25670;44.782;10.356;2022-11-15T02:24:49;6.80;99.90
39983;DHT22;25670;44.782;10.356;2022-11-15T02:36:32;6.80;99.90
39983;DHT22;25670;44.782;10.356;2022-11-15T02:42:45;6.40;99.90
39983;DHT22;25670;44.782;10.356;2022-11-15T02:46:03;6.60;99.90
39983;DHT22;25670;44.782;10.356;2022-11-15T02:48:51;6.30;99.90
39983;DHT22;25670;44.782;10.356;2022-11-15T02:51:36;6.70;99.90
39983;DHT22;25670;44.782;10.356;2022-11-15T02:54:24;6.90;99.90
39983;DHT22;25670;44.782;10.356;2022-11-15T02:57:16;6.20;99.90
39983;DHT22;25670;44.782;10.356;2022-11-15T03:00:05;6.90;99.90
39983;DHT22;25670;44.782;10.356;2022-11-15T03:03:50;6.80;99.90
39983;DHT22;25670;44.782;10.356;2022-11-15T03:09:14;7.10;99.90
39983;DHT22;25670;44.782;10.356;2022-11-15T03:12:16;7.00;99.90
39983;DHT22;25670;44.782;10.356;2022-11-15T03:15:07;7.20;99.90
39983;DHT22;25670;44.782;10.356;2022-11-15T03:18:07;7.50;99.90
39983;DHT22;25670;44.782;10.356;2022-11-15T03:20:57;7.50;99.90
39983;DHT22;25670;44.782;10.356;2022-11-15T03:23:44;7.60;99.90
39983;DHT22;25670;44.782;10.356;2022-11-15T03:26:32;7.30;99.90
39983;DHT22;25670;44.782;10.356;2022-11-15T03:29:22;7.70;99.90
39983;DHT22;25670;44.782;10.356;2022-11-15T03:32:14;7.70;99.90
39983;DHT22;25670;44.782;10.356;2022-11-15T03:35:10;7.80;99.90
39983;DHT22;25670;44.782;10.356;2022-11-15T03:38:27;7.70;99.90
39983;DHT22;25670;44.782;10.356;2022-11-15T03:41:21;7.80;99.90
39983;DHT22;25670;44.782;10.356;2022-11-15T03:47:11;7.80;99.90
39983;DHT22;25670;44.782;10.356;2022-11-15T03:50:18;7.70;99.90
39983;DHT22;25670;44.782;10.356;2022-11-15T03:53:04;7.90;99.90
39983;DHT22;25670;44.782;10.356;2022-11-15T03:55:49;7.90;99.90
39983;DHT22;25670;44.782;10.356;2022-11-15T04:01:18;8.10;99.90
39983;DHT22;25670;44.782;10.356;2022-11-15T04:04:04;8.00;99.90
39983;DHT22;25670;44.782;10.356;2022-11-15T04:06:49;8.10;99.90
39983;DHT22;25670;44.782;10.356;2022-11-15T04:09:33;8.20;99.90
39983;DHT22;25670;44.782;10.356;2022-11-15T04:12:40;8.20;99.90
39983;DHT22;25670;44.782;10.356;2022-11-15T04:15:27;7.90;99.90
39983;DHT22;25670;44.782;10.356;2022-11-15T04:20:57;8.40;99.90
39983;DHT22;25670;44.782;10.356;2022-11-15T04:24:01;8.40;99.90
39983;DHT22;25670;44.782;10.356;2022-11-15T04:26:49;8.40;99.90
39983;DHT22;25670;44.782;10.356;2022-11-15T04:32:18;8.50;99.90
39983;DHT22;25670;44.782;10.356;2022-11-15T04:43:19;8.50;99.90
39983;DHT22;25670;44.782;10.356;2022-11-15T04:46:03;8.60;99.90
39983;DHT22;25670;44.782;10.356;2022-11-15T04:51:33;8.80;99.90
39983;DHT22;25670;44.782;10.356;2022-11-15T04:54:18;8.60;99.90
39983;DHT22;25670;44.782;10.356;2022-11-15T04:57:03;8.70;99.90
39983;DHT22;25670;44.782;10.356;2022-11-15T05:08:22;8.30;99.90
39983;DHT22;25670;44.782;10.356;2022-11-15T05:13:52;8.60;99.90
39983;DHT22;25670;44.782;10.356;2022-11-15T05:19:23;8.50;99.90
39983;DHT22;25670;44.782;10.356;2022-11-15T05:22:08;8.50;99.90
39983;DHT22;25670;44.782;10.356;2022-11-15T05:27:37;8.50;99.90
39983;DHT22;25670;44.782;10.356;2022-11-15T05:30:22;8.50;99.90
39983;DHT22;25670;44.782;10.356;2022-11-15T05:33:07;8.40;99.90
39983;DHT22;25670;44.782;10.356;2022-11-15T05:35:59;8.60;99.90
39983;DHT22;25670;44.782;10.356;2022-11-15T05:38:46;9.00;99.90
39983;DHT22;25670;44.782;10.356;2022-11-15T05:41:38;11.00;99.90
39983;DHT22;25670;44.782;10.356;2022-11-15T05:47:14;8.70;99.90
39983;DHT22;25670;44.782;10.356;2022-11-15T05:52:45;11.90;99.90
39983;DHT22;25670;44.782;10.356;2022-11-15T05:55:30;8.70;99.90
39983;DHT22;25670;44.782;10.356;2022-11-15T05:58:16;8.60;99.90
39983;DHT22;25670;44.782;10.356;2022-11-15T06:03:46;8.60;99.90
39983;DHT22;25670;44.782;10.356;2022-11-15T06:20:15;8.80;99.90
39983;DHT22;25670;44.782;10.356;2022-11-15T06:23:02;8.80;99.90
39983;DHT22;25670;44.782;10.356;2022-11-15T06:31:18;8.70;99.90
39983;DHT22;25670;44.782;10.356;2022-11-15T06:34:03;8.80;99.90
39983;DHT22;25670;44.782;10.356;2022-11-15T06:42:17;8.90;99.90
39983;DHT22;25670;44.782;10.356;2022-11-15T06:45:02;8.50;99.90
39983;DHT22;25670;44.782;10.356;2022-11-15T06:47:47;8.40;99.90
39983;DHT22;25670;44.782;10.356;2022-11-15T06:50:32;8.70;99.90
39983;DHT22;25670;44.782;10.356;2022-11-15T06:53:18;8.70;99.90
39983;DHT22;25670;44.782;10.356;2022-11-15T06:56:05;8.60;99.90
39983;DHT22;25670;44.782;10.356;2022-11-15T07:04:20;8.70;99.90
39983;DHT22;25670;44.782;10.356;2022-11-15T07:07:05;8.80;99.90
39983;DHT22;25670;44.782;10.356;2022-11-15T07:09:50;8.80;99.90
39983;DHT22;25670;44.782;10.356;2022-11-15T07:15:21;9.00;99.90
39983;DHT22;25670;44.782;10.356;2022-11-15T07:20:51;8.90;99.90
39983;DHT22;25670;44.782;10.356;2022-11-15T07:23:37;9.00;99.90
39983;DHT22;25670;44.782;10.356;2022-11-15T07:26:25;9.00;99.90
39983;DHT22;25670;44.782;10.356;2022-11-15T07:31:54;9.20;99.90
39983;DHT22;25670;44.782;10.356;2022-11-15T07:34:39;9.10;99.90
39983;DHT22;25670;44.782;10.356;2022-11-15T07:37:23;9.20;99.90
39983;DHT22;25670;44.782;10.356;2022-11-15T07:40:08;9.30;99.90
39983;DHT22;25670;44.782;10.356;2022-11-15T07:42:59;9.30;99.90
39983;DHT22;25670;44.782;10.356;2022-11-15T07:45:45;9.40;99.90
39983;DHT22;25670;44.782;10.356;2022-11-15T07:48:30;9.40;99.90
39983;DHT22;25670;44.782;10.356;2022-11-15T07:51:16;9.50;99.90
39983;DHT22;25670;44.782;10.356;2022-11-15T07:56:46;9.60;99.90
39983;DHT22;25670;44.782;10.356;2022-11-15T07:59:30;9.80;99.90
39983;DHT22;25670;44.782;10.356;2022-11-15T08:02:15;9.90;99.90
39983;DHT22;25670;44.782;10.356;2022-11-15T08:05:02;8.00;99.90
39983;DHT22;25670;44.782;10.356;2022-11-15T08:10:32;10.00;99.90
39983;DHT22;25670;44.782;10.356;2022-11-15T08:13:17;9.90;99.90
39983;DHT22;25670;44.782;10.356;2022-11-15T08:16:03;9.90;99.90
39983;DHT22;25670;44.782;10.356;2022-11-15T08:21:35;10.00;99.90
39983;DHT22;25670;44.782;10.356;2022-11-15T08:24:20;10.00;99.90
39983;DHT22;25670;44.782;10.356;2022-11-15T08:27:05;10.00;99.90
39983;DHT22;25670;44.782;10.356;2022-11-15T08:29:59;10.20;99.90
39983;DHT22;25670;44.782;10.356;2022-11-15T08:32:44;10.10;99.90
39983;DHT22;25670;44.782;10.356;2022-11-15T08:35:28;10.20;99.90
39983;DHT22;25670;44.782;10.356;2022-11-15T08:38:14;10.20;99.90
39983;DHT22;25670;44.782;10.356;2022-11-15T08:41:02;10.20;99.90
39983;DHT22;25670;44.782;10.356;2022-11-15T08:43:48;10.30;99.90
39983;DHT22;25670;44.782;10.356;2022-11-15T08:46:33;10.30;99.90
39983;DHT22;25670;44.782;10.356;2022-11-15T08:52:03;10.30;99.90
39983;DHT22;25670;44.782;10.356;2022-11-15T08:54:48;10.40;99.90
39983;DHT22;25670;44.782;10.356;2022-11-15T08:57:33;10.50;99.90
39983;DHT22;25670;44.782;10.356;2022-11-15T09:00:18;10.50;99.90
39983;DHT22;25670;44.782;10.356;2022-11-15T09:03:05;10.50;99.90
39983;DHT22;25670;44.782;10.356;2022-11-15T09:05:54;9.70;99.90
39983;DHT22;25670;44.782;10.356;2022-11-15T09:08:40;10.50;99.90
39983;DHT22;25670;44.782;10.356;2022-11-15T09:11:25;10.50;99.90
39983;DHT22;25670;44.782;10.356;2022-11-15T09:14:12;10.60;99.90
39983;DHT22;25670;44.782;10.356;2022-11-15T09:16:57;10.60;99.90
39983;DHT22;25670;44.782;10.356;2022-11-15T09:19:43;10.70;99.90
39983;DHT22;25670;44.782;10.356;2022-11-15T09:22:27;10.70;99.90
39983;DHT22;25670;44.782;10.356;2022-11-15T09:25:13;10.80;99.90
39983;DHT22;25670;44.782;10.356;2022-11-15T09:30:43;10.90;99.90
39983;DHT22;25670;44.782;10.356;2022-11-15T09:36:13;11.00;99.90
39983;DHT22;25670;44.782;10.356;2022-11-15T09:38:58;11.00;99.90
39983;DHT22;25670;44.782;10.356;2022-11-15T09:50:50;10.90;99.90
39983;DHT22;25670;44.782;10.356;2022-11-15T09:53:36;10.90;99.90
39983;DHT22;25670;44.782;10.356;2022-11-15T09:56:14;10.90;99.90
39983;DHT22;25670;44.782;10.356;2022-11-15T09:59:22;11.00;99.90
39983;DHT22;25670;44.782;10.356;2022-11-15T10:04:39;11.20;99.90
39983;DHT22;25670;44.782;10.356;2022-11-15T10:07:26;11.30;99.90
39983;DHT22;25670;44.782;10.356;2022-11-15T10:10:20;11.50;99.90
39983;DHT22;25670;44.782;10.356;2022-11-15T10:12:50;11.60;99.90
39983;DHT22;25670;44.782;10.356;2022-11-15T10:15:18;11.60;99.90
39983;DHT22;25670;44.782;10.356;2022-11-15T10:20:46;11.50;99.90
39983;DHT22;25670;44.782;10.356;2022-11-15T10:23:21;11.60;99.90
39983;DHT22;25670;44.782;10.356;2022-11-15T10:25:55;11.70;99.90
39983;DHT22;25670;44.782;10.356;2022-11-15T10:28:27;11.70;99.90
39983;DHT22;25670;44.782;10.356;2022-11-15T10:30:57;11.60;99.90
39983;DHT22;25670;44.782;10.356;2022-11-15T10:33:33;11.60;99.90
39983;DHT22;25670;44.782;10.356;2022-11-15T10:41:19;11.50;99.90
39983;DHT22;25670;44.782;10.356;2022-11-15T10:46:34;11.60;99.90
39983;DHT22;25670;44.782;10.356;2022-11-15T10:49:19;11.50;99.90
39983;DHT22;25670;44.782;10.356;2022-11-15T10:51:49;11.60;99.90
39983;DHT22;25670;44.782;10.356;2022-11-15T10:56:51;11.30;99.90
39983;DHT22;25670;44.782;10.356;2022-11-15T10:59:29;11.40;99.90
39983;DHT22;25670;44.782;10.356;2022-11-15T11:01:56;11.50;99.90
39983;DHT22;25670;44.782;10.356;2022-11-15T11:04:23;11.60;99.90
39983;DHT22;25670;44.782;10.356;2022-11-15T11:06:51;11.60;99.90
39983;DHT22;25670;44.782;10.356;2022-11-15T11:09:31;11.60;99.90
39983;DHT22;25670;44.782;10.356;2022-11-15T11:14:30;11.40;99.90
39983;DHT22;25670;44.782;10.356;2022-11-15T11:17:02;11.50;99.90
39983;DHT22;25670;44.782;10.356;2022-11-15T11:31:29;11.90;99.90
39983;DHT22;25670;44.782;10.356;2022-11-15T11:36:50;12.00;99.90
39983;DHT22;25670;44.782;10.356;2022-11-15T11:42:24;11.90;99.90
39983;DHT22;25670;44.782;10.356;2022-11-15T11:47:40;11.70;99.90
39983;DHT22;25670;44.782;10.356;2022-11-15T11:50:22;11.60;99.90
39983;DHT22;25670;44.782;10.356;2022-11-15T11:53:02;11.50;99.90
39983;DHT22;25670;44.782;10.356;2022-11-15T11:58:11;11.30;99.90
39983;DHT22;25670;44.782;10.356;2022-11-15T12:00:43;11.30;99.90
39983;DHT22;25670;44.782;10.356;2022-11-15T12:03:26;11.20;99.90
39983;DHT22;25670;44.782;10.356;2022-11-15T12:06:01;11.20;99.90
39983;DHT22;25670;44.782;10.356;2022-11-15T12:08:48;11.20;99.90
39983;DHT22;25670;44.782;10.356;2022-11-15T12:14:04;11.20;99.90
39983;DHT22;25670;44.782;10.356;2022-11-15T12:16:32;11.20;99.90
39983;DHT22;25670;44.782;10.356;2022-11-15T12:19:01;11.20;99.90
39983;DHT22;25670;44.782;10.356;2022-11-15T12:21:54;11.20;99.90
39983;DHT22;25670;44.782;10.356;2022-11-15T12:24:41;11.30;99.90
39983;DHT22;25670;44.782;10.356;2022-11-15T12:29:52;11.50;99.90
39983;DHT22;25670;44.782;10.356;2022-11-15T12:32:33;11.60;99.90
39983;DHT22;25670;44.782;10.356;2022-11-15T12:35:03;11.60;99.90
39983;DHT22;25670;44.782;10.356;2022-11-15T12:42:42;11.70;99.90
39983;DHT22;25670;44.782;10.356;2022-11-15T12:45:38;11.80;99.90
39983;DHT22;25670;44.782;10.356;2022-11-15T12:50:56;11.80;99.90
39983;DHT22;25670;44.782;10.356;2022-11-15T12:58:48;11.60;99.90
39983;DHT22;25670;44.782;10.356;2022-11-15T13:06:59;11.40;99.90
39983;DHT22;25670;44.782;10.356;2022-11-15T13:11:59;11.50;99.90
39983;DHT22;25670;44.782;10.356;2022-11-15T13:22:29;11.50;99.90
39983;DHT22;25670;44.782;10.356;2022-11-15T13:25:38;11.60;99.90
39983;DHT22;25670;44.782;10.356;2022-11-15T13:30:36;11.60;99.90
39983;DHT22;25670;44.782;10.356;2022-11-15T13:35:49;11.60;99.90
39983;DHT22;25670;44.782;10.356;2022-11-15T13:38:26;11.50;99.90
39983;DHT22;25670;44.782;10.356;2022-11-15T13:40:53;11.40;99.90
39983;DHT22;25670;44.782;10.356;2022-11-15T13:48:31;11.60;99.90
39983;DHT22;25670;44.782;10.356;2022-11-15T13:51:01;11.70;99.90
39983;DHT22;25670;44.782;10.356;2022-11-15T13:53:31;11.70;99.90
39983;DHT22;25670;44.782;10.356;2022-11-15T13:55:58;11.70;99.90
39983;DHT22;25670;44.782;10.356;2022-11-15T13:58:25;11.60;99.90
39983;DHT22;25670;44.782;10.356;2022-11-15T14:01:03;11.40;99.90
39983;DHT22;25670;44.782;10.356;2022-11-15T14:03:37;11.30;99.90
39983;DHT22;25670;44.782;10.356;2022-11-15T14:06:09;11.20;99.90
39983;DHT22;25670;44.782;10.356;2022-11-15T14:09:00;11.20;99.90
39983;DHT22;25670;44.782;10.356;2022-11-15T14:11:26;11.10;99.90
39983;DHT22;25670;44.782;10.356;2022-11-15T14:14:23;11.00;99.90
39983;DHT22;25670;44.782;10.356;2022-11-15T14:16:54;10.70;99.90
39983;DHT22;25670;44.782;10.356;2022-11-15T14:22:22;10.70;99.90
39983;DHT22;25670;44.782;10.356;2022-11-15T14:27:34;10.50;99.90
39983;DHT22;25670;44.782;10.356;2022-11-15T14:30:00;10.40;99.90
39983;DHT22;25670;44.782;10.356;2022-11-15T14:32:29;10.40;99.90
39983;DHT22;25670;44.782;10.356;2022-11-15T14:35:00;10.40;99.90
39983;DHT22;25670;44.782;10.356;2022-11-15T14:39:55;10.30;99.90
39983;DHT22;25670;44.782;10.356;2022-11-15T14:42:22;10.20;99.90
39983;DHT22;25670;44.782;10.356;2022-11-15T14:44:49;10.20;99.90
39983;DHT22;25670;44.782;10.356;2022-11-15T14:49:42;10.10;99.90
39983;DHT22;25670;44.782;10.356;2022-11-15T14:52:28;10.10;99.90
39983;DHT22;25670;44.782;10.356;2022-11-15T14:54:55;10.10;99.90
39983;DHT22;25670;44.782;10.356;2022-11-15T14:57:22;10.10;99.90
39983;DHT22;25670;44.782;10.356;2022-11-15T15:02:24;10.10;99.90
39983;DHT22;25670;44.782;10.356;2022-11-15T15:07:18;10.10;99.90
39983;DHT22;25670;44.782;10.356;2022-11-15T15:09:45;10.10;99.90
39983;DHT22;25670;44.782;10.356;2022-11-15T15:12:21;10.10;99.90
39983;DHT22;25670;44.782;10.356;2022-11-15T15:14:49;10.00;99.90
39983;DHT22;25670;44.782;10.356;2022-11-15T15:19:42;10.00;99.90
39983;DHT22;25670;44.782;10.356;2022-11-15T15:22:14;10.00;99.90
39983;DHT22;25670;44.782;10.356;2022-11-15T15:24:40;10.00;99.90
39983;DHT22;25670;44.782;10.356;2022-11-15T15:27:07;10.00;99.90
39983;DHT22;25670;44.782;10.356;2022-11-15T15:29:33;10.00;99.90
39983;DHT22;25670;44.782;10.356;2022-11-15T15:31:59;11.30;99.90
39983;DHT22;25670;44.782;10.356;2022-11-15T15:34:25;10.00;99.90
39983;DHT22;25670;44.782;10.356;2022-11-15T15:42:04;9.90;99.90
39983;DHT22;25670;44.782;10.356;2022-11-15T15:44:30;9.90;99.90
39983;DHT22;25670;44.782;10.356;2022-11-15T15:46:57;9.70;99.90
39983;DHT22;25670;44.782;10.356;2022-11-15T15:49:23;9.80;99.90
39983;DHT22;25670;44.782;10.356;2022-11-15T15:51:50;9.80;99.90
39983;DHT22;25670;44.782;10.356;2022-11-15T15:54:16;10.70;99.90
39983;DHT22;25670;44.782;10.356;2022-11-15T15:56:42;9.80;99.90
39983;DHT22;25670;44.782;10.356;2022-11-15T15:59:08;9.70;99.90
39983;DHT22;25670;44.782;10.356;2022-11-15T16:01:34;9.80;99.90
39983;DHT22;25670;44.782;10.356;2022-11-15T16:04:01;9.70;99.90
39983;DHT22;25670;44.782;10.356;2022-11-15T16:06:38;9.70;99.90
39983;DHT22;25670;44.782;10.356;2022-11-15T16:14:01;9.70;99.90
39983;DHT22;25670;44.782;10.356;2022-11-15T16:16:27;9.70;99.90
39983;DHT22;25670;44.782;10.356;2022-11-15T16:18:55;9.70;99.90
39983;DHT22;25670;44.782;10.356;2022-11-15T16:23:48;9.70;99.90
39983;DHT22;25670;44.782;10.356;2022-11-15T16:26:26;9.70;99.90
39983;DHT22;25670;44.782;10.356;2022-11-15T16:28:53;9.60;99.90
39983;DHT22;25670;44.782;10.356;2022-11-15T16:31:20;9.20;99.90
39983;DHT22;25670;44.782;10.356;2022-11-15T16:33:49;9.70;99.90
39983;DHT22;25670;44.782;10.356;2022-11-15T16:36:23;9.70;99.90
39983;DHT22;25670;44.782;10.356;2022-11-15T16:38:50;9.70;99.90
39983;DHT22;25670;44.782;10.356;2022-11-15T16:41:17;9.80;99.90
39983;DHT22;25670;44.782;10.356;2022-11-15T16:43:45;9.70;99.90
39983;DHT22;25670;44.782;10.356;2022-11-15T16:46:23;9.80;99.90
39983;DHT22;25670;44.782;10.356;2022-11-15T16:48:50;9.70;99.90
39983;DHT22;25670;44.782;10.356;2022-11-15T16:51:16;9.80;99.90
39983;DHT22;25670;44.782;10.356;2022-11-15T16:53:43;9.70;99.90
39983;DHT22;25670;44.782;10.356;2022-11-15T16:56:30;9.70;99.90
39983;DHT22;25670;44.782;10.356;2022-11-15T16:58:57;9.70;99.90
39983;DHT22;25670;44.782;10.356;2022-11-15T17:01:26;9.70;99.90
39983;DHT22;25670;44.782;10.356;2022-11-15T17:03:53;9.60;99.90
39983;DHT22;25670;44.782;10.356;2022-11-15T17:08:46;9.70;99.90
39983;DHT22;25670;44.782;10.356;2022-11-15T17:11:19;9.70;99.90
39983;DHT22;25670;44.782;10.356;2022-11-15T17:13:46;9.70;99.90
39983;DHT22;25670;44.782;10.356;2022-11-15T17:16:16;9.70;99.90
39983;DHT22;25670;44.782;10.356;2022-11-15T17:18:43;9.70;99.90
39983;DHT22;25670;44.782;10.356;2022-11-15T17:21:14;9.70;99.90
39983;DHT22;25670;44.782;10.356;2022-11-15T17:23:42;9.60;99.90
39983;DHT22;25670;44.782;10.356;2022-11-15T17:26:09;9.70;99.90
39983;DHT22;25670;44.782;10.356;2022-11-15T17:28:37;9.70;99.90
39983;DHT22;25670;44.782;10.356;2022-11-15T17:31:08;9.70;99.90
39983;DHT22;25670;44.782;10.356;2022-11-15T17:33:36;9.70;99.90
39983;DHT22;25670;44.782;10.356;2022-11-15T17:36:07;9.70;99.90
39983;DHT22;25670;44.782;10.356;2022-11-15T17:38:34;9.70;99.90
39983;DHT22;25670;44.782;10.356;2022-11-15T17:41:13;9.70;99.90
39983;DHT22;25670;44.782;10.356;2022-11-15T17:43:40;9.70;99.90
39983;DHT22;25670;44.782;10.356;2022-11-15T17:46:09;9.70;99.90
39983;DHT22;25670;44.782;10.356;2022-11-15T17:48:36;9.60;99.90
39983;DHT22;25670;44.782;10.356;2022-11-15T17:51:05;9.70;99.90
39983;DHT22;25670;44.782;10.356;2022-11-15T17:53:36;9.70;99.90
39983;DHT22;25670;44.782;10.356;2022-11-15T17:56:12;9.60;99.90
39983;DHT22;25670;44.782;10.356;2022-11-15T17:58:39;9.60;99.90
39983;DHT22;25670;44.782;10.356;2022-11-15T18:03:36;9.50;99.90
39983;DHT22;25670;44.782;10.356;2022-11-15T18:06:04;9.60;99.90
39983;DHT22;25670;44.782;10.356;2022-11-15T18:08:31;9.60;99.90
39983;DHT22;25670;44.782;10.356;2022-11-15T18:11:18;9.60;99.90
39983;DHT22;25670;44.782;10.356;2022-11-15T18:13:47;9.60;99.90
39983;DHT22;25670;44.782;10.356;2022-11-15T18:16:16;9.60;99.90
39983;DHT22;25670;44.782;10.356;2022-11-15T18:18:43;9.50;99.90
39983;DHT22;25670;44.782;10.356;2022-11-15T18:23:37;9.60;99.90
39983;DHT22;25670;44.782;10.356;2022-11-15T18:26:05;9.50;99.90
39983;DHT22;25670;44.782;10.356;2022-11-15T18:28:37;9.10;99.90
39983;DHT22;25670;44.782;10.356;2022-11-15T18:31:29;9.50;99.90
39983;DHT22;25670;44.782;10.356;2022-11-15T18:33:58;9.60;99.90
39983;DHT22;25670;44.782;10.356;2022-11-15T18:36:27;9.60;99.90
39983;DHT22;25670;44.782;10.356;2022-11-15T18:38:59;9.60;99.90
39983;DHT22;25670;44.782;10.356;2022-11-15T18:41:27;9.60;99.90
39983;DHT22;25670;44.782;10.356;2022-11-15T18:43:58;9.30;99.90
39983;DHT22;25670;44.782;10.356;2022-11-15T18:46:28;9.60;99.90
39983;DHT22;25670;44.782;10.356;2022-11-15T18:48:56;9.20;99.90
39983;DHT22;25670;44.782;10.356;2022-11-15T18:51:25;9.50;99.90
39983;DHT22;25670;44.782;10.356;2022-11-15T18:53:54;9.60;99.90
39983;DHT22;25670;44.782;10.356;2022-11-15T18:56:21;9.50;99.90
39983;DHT22;25670;44.782;10.356;2022-11-15T18:58:51;9.60;99.90
39983;DHT22;25670;44.782;10.356;2022-11-15T19:01:21;9.60;99.90
39983;DHT22;25670;44.782;10.356;2022-11-15T19:03:50;9.60;99.90
39983;DHT22;25670;44.782;10.356;2022-11-15T19:06:19;9.60;99.90
39983;DHT22;25670;44.782;10.356;2022-11-15T19:08:47;9.60;99.90
39983;DHT22;25670;44.782;10.356;2022-11-15T19:11:19;9.60;99.90
39983;DHT22;25670;44.782;10.356;2022-11-15T19:13:53;9.60;99.90
39983;DHT22;25670;44.782;10.356;2022-11-15T19:16:25;10.10;99.90
39983;DHT22;25670;44.782;10.356;2022-11-15T19:18:59;9.60;99.90
39983;DHT22;25670;44.782;10.356;2022-11-15T19:21:26;9.60;99.90
39983;DHT22;25670;44.782;10.356;2022-11-15T19:26:21;9.60;99.90
39983;DHT22;25670;44.782;10.356;2022-11-15T19:28:53;11.00;99.90
39983;DHT22;25670;44.782;10.356;2022-11-15T19:31:19;9.60;99.90
39983;DHT22;25670;44.782;10.356;2022-11-15T19:33:46;9.60;99.90
39983;DHT22;25670;44.782;10.356;2022-11-15T19:36:15;9.60;99.90
39983;DHT22;25670;44.782;10.356;2022-11-15T19:38:42;9.60;99.90
39983;DHT22;25670;44.782;10.356;2022-11-15T19:41:15;9.60;99.90
39983;DHT22;25670;44.782;10.356;2022-11-15T19:43:42;9.50;99.90
39983;DHT22;25670;44.782;10.356;2022-11-15T19:46:10;9.50;99.90
39983;DHT22;25670;44.782;10.356;2022-11-15T19:48:37;9.50;99.90
39983;DHT22;25670;44.782;10.356;2022-11-15T19:51:15;9.50;99.90
39983;DHT22;25670;44.782;10.356;2022-11-15T19:53:41;9.50;99.90
39983;DHT22;25670;44.782;10.356;2022-11-15T19:56:11;9.50;99.90
39983;DHT22;25670;44.782;10.356;2022-11-15T19:58:38;9.50;99.90
39983;DHT22;25670;44.782;10.356;2022-11-15T20:01:27;9.50;99.90
39983;DHT22;25670;44.782;10.356;2022-11-15T20:03:53;9.60;99.90
39983;DHT22;25670;44.782;10.356;2022-11-15T20:06:22;9.50;99.90
39983;DHT22;25670;44.782;10.356;2022-11-15T20:11:15;9.60;99.90
39983;DHT22;25670;44.782;10.356;2022-11-15T20:13:42;9.60;99.90
39983;DHT22;25670;44.782;10.356;2022-11-15T20:16:14;9.60;99.90
39983;DHT22;25670;44.782;10.356;2022-11-15T20:18:40;9.60;99.90
39983;DHT22;25670;44.782;10.356;2022-11-15T20:21:08;9.50;99.90
39983;DHT22;25670;44.782;10.356;2022-11-15T20:28:28;9.50;99.90
39983;DHT22;25670;44.782;10.356;2022-11-15T20:30:56;9.50;99.90
39983;DHT22;25670;44.782;10.356;2022-11-15T20:33:23;9.50;99.90
39983;DHT22;25670;44.782;10.356;2022-11-15T20:40:44;9.50;99.90
39983;DHT22;25670;44.782;10.356;2022-11-15T20:43:13;9.40;99.90
39983;DHT22;25670;44.782;10.356;2022-11-15T20:45:42;9.50;99.90
39983;DHT22;25670;44.782;10.356;2022-11-15T20:48:09;9.50;99.90
39983;DHT22;25670;44.782;10.356;2022-11-15T20:50:39;9.80;99.90
39983;DHT22;25670;44.782;10.356;2022-11-15T20:53:06;9.90;99.90
39983;DHT22;25670;44.782;10.356;2022-11-15T20:55:37;9.50;99.90
39983;DHT22;25670;44.782;10.356;2022-11-15T20:58:03;9.70;99.90
39983;DHT22;25670;44.782;10.356;2022-11-15T21:00:29;9.70;99.90
39983;DHT22;25670;44.782;10.356;2022-11-15T21:05:22;9.60;99.90
39983;DHT22;25670;44.782;10.356;2022-11-15T21:07:49;9.80;99.90
39983;DHT22;25670;44.782;10.356;2022-11-15T21:10:15;9.80;99.90
39983;DHT22;25670;44.782;10.356;2022-11-15T21:13:00;9.80;99.90
39983;DHT22;25670;44.782;10.356;2022-11-15T21:15:26;9.80;99.90
39983;DHT22;25670;44.782;10.356;2022-11-15T21:17:52;9.80;99.90
39983;DHT22;25670;44.782;10.356;2022-11-15T21:22:46;9.80;99.90
39983;DHT22;25670;44.782;10.356;2022-11-15T21:25:12;9.80;99.90
39983;DHT22;25670;44.782;10.356;2022-11-15T21:30:05;9.70;99.90
39983;DHT22;25670;44.782;10.356;2022-11-15T21:32:32;9.80;99.90
39983;DHT22;25670;44.782;10.356;2022-11-15T21:34:58;9.30;99.90
39983;DHT22;25670;44.782;10.356;2022-11-15T21:37:24;9.70;99.90
39983;DHT22;25670;44.782;10.356;2022-11-15T21:39:51;9.60;99.90
39983;DHT22;25670;44.782;10.356;2022-11-15T21:42:17;9.60;99.90
39983;DHT22;25670;44.782;10.356;2022-11-15T21:44:43;9.60;99.90
39983;DHT22;25670;44.782;10.356;2022-11-15T21:47:10;10.00;99.90
39983;DHT22;25670;44.782;10.356;2022-11-15T21:49:36;9.60;99.90
39983;DHT22;25670;44.782;10.356;2022-11-15T21:52:02;9.60;99.90
39983;DHT22;25670;44.782;10.356;2022-11-15T21:54:29;9.60;99.90
39983;DHT22;25670;44.782;10.356;2022-11-15T21:56:55;9.60;99.90
39983;DHT22;25670;44.782;10.356;2022-11-15T21:59:21;9.60;99.90
39983;DHT22;25670;44.782;10.356;2022-11-15T22:01:47;9.60;99.90
39983;DHT22;25670;44.782;10.356;2022-11-15T22:04:32;9.60;99.90
39983;DHT22;25670;44.782;10.356;2022-11-15T22:06:59;9.60;99.90